sensor_id;sensor_type;location;lat;lon;timestamp;pressure;altitude;pressure_sealevel;temperature;humidity
62038;BME280;47991;42.974;12.082;2023-03-13T00:01:26;97913.54;;;6.33;75.39
62038;BME280;47991;42.974;12.082;2023-03-13T00:03:53;97910.89;;;6.34;75.54
62038;BME280;47991;42.974;12.082;2023-03-13T00:06:22;97913.66;;;6.39;75.05
62038;BME280;47991;42.974;12.082;2023-03-13T00:08:49;97917.70;;;6.40;75.63
62038;BME280;47991;42.974;12.082;2023-03-13T00:11:15;97919.46;;;6.37;76.23
62038;BME280;47991;42.974;12.082;2023-03-13T00:13:42;97923.49;;;6.38;75.85
62038;BME280;47991;42.974;12.082;2023-03-13T00:16:10;97927.02;;;6.36;75.49
62038;BME280;47991;42.974;12.082;2023-03-13T00:18:37;97929.02;;;6.30;75.35
62038;BME280;47991;42.974;12.082;2023-03-13T00:21:06;97932.56;;;6.26;75.17
62038;BME280;47991;42.974;12.082;2023-03-13T00:23:33;97937.86;;;6.23;75.43
62038;BME280;47991;42.974;12.082;2023-03-13T00:26:02;97936.98;;;6.21;75.38
62038;BME280;47991;42.974;12.082;2023-03-13T00:28:31;97932.81;;;6.16;75.54
62038;BME280;47991;42.974;12.082;2023-03-13T00:31:04;97937.09;;;6.08;76.16
62038;BME280;47991;42.974;12.082;2023-03-13T00:33:35;97933.80;;;6.03;76.54
62038;BME280;47991;42.974;12.082;2023-03-13T00:36:11;97931.84;;;6.07;76.02
62038;BME280;47991;42.974;12.082;2023-03-13T00:38:38;97933.58;;;6.08;75.96
62038;BME280;47991;42.974;12.082;2023-03-13T00:41:15;97934.97;;;6.11;77.35
62038;BME280;47991;42.974;12.082;2023-03-13T00:43:43;97937.73;;;6.14;76.47
62038;BME280;47991;42.974;12.082;2023-03-13T00:46:12;97936.36;;;6.13;76.44
62038;BME280;47991;42.974;12.082;2023-03-13T00:48:39;97939.90;;;6.10;76.82
62038;BME280;47991;42.974;12.082;2023-03-13T00:51:06;97937.98;;;6.06;76.29
62038;BME280;47991;42.974;12.082;2023-03-13T00:53:32;97935.91;;;6.02;76.22
62038;BME280;47991;42.974;12.082;2023-03-13T00:58:33;97938.41;;;5.90;76.89
62038;BME280;47991;42.974;12.082;2023-03-13T01:01:18;97942.83;;;5.87;76.63
62038;BME280;47991;42.974;12.082;2023-03-13T01:04:06;97940.40;;;5.84;77.81
62038;BME280;47991;42.974;12.082;2023-03-13T01:06:34;97946.86;;;5.88;77.16
62038;BME280;47991;42.974;12.082;2023-03-13T01:09:03;97951.57;;;5.93;76.80
62038;BME280;47991;42.974;12.082;2023-03-13T01:11:32;97949.98;;;5.90;76.64
62038;BME280;47991;42.974;12.082;2023-03-13T01:14:01;97957.44;;;5.78;77.36
62038;BME280;47991;42.974;12.082;2023-03-13T01:16:29;97959.77;;;5.72;76.93
62038;BME280;47991;42.974;12.082;2023-03-13T01:18:59;97956.81;;;5.68;77.71
62038;BME280;47991;42.974;12.082;2023-03-13T01:21:26;97955.96;;;5.63;78.30
62038;BME280;47991;42.974;12.082;2023-03-13T01:23:53;97958.11;;;5.56;77.84
62038;BME280;47991;42.974;12.082;2023-03-13T01:26:20;97958.11;;;5.53;77.51
62038;BME280;47991;42.974;12.082;2023-03-13T01:28:47;97957.78;;;5.49;77.69
62038;BME280;47991;42.974;12.082;2023-03-13T01:33:46;97958.80;;;5.56;77.98
62038;BME280;47991;42.974;12.082;2023-03-13T01:36:15;97962.78;;;5.65;77.45
62038;BME280;47991;42.974;12.082;2023-03-13T01:38:42;97968.85;;;5.78;76.84
62038;BME280;47991;42.974;12.082;2023-03-13T01:41:11;97966.86;;;5.86;76.65
62038;BME280;47991;42.974;12.082;2023-03-13T01:43:38;97964.26;;;5.85;76.60
62038;BME280;47991;42.974;12.082;2023-03-13T01:52:06;97973.66;;;5.65;76.83
62038;BME280;47991;42.974;12.082;2023-03-13T01:54:42;97975.08;;;5.62;77.82
62038;BME280;47991;42.974;12.082;2023-03-13T01:57:24;97975.62;;;5.60;79.43
62038;BME280;47991;42.974;12.082;2023-03-13T02:00:01;97977.88;;;5.63;77.98
62038;BME280;47991;42.974;12.082;2023-03-13T02:02:41;97973.13;;;5.69;77.51
62038;BME280;47991;42.974;12.082;2023-03-13T02:05:09;97972.61;;;5.65;77.28
62038;BME280;47991;42.974;12.082;2023-03-13T02:07:45;97970.52;;;5.61;77.06
62038;BME280;47991;42.974;12.082;2023-03-13T02:10:13;97960.73;;;5.57;78.12
62038;BME280;47991;42.974;12.082;2023-03-13T02:12:43;97957.38;;;5.58;77.41
62038;BME280;47991;42.974;12.082;2023-03-13T02:15:15;97958.45;;;5.56;77.64
62038;BME280;47991;42.974;12.082;2023-03-13T02:17:43;97962.66;;;5.57;78.17
62038;BME280;47991;42.974;12.082;2023-03-13T02:20:12;97964.39;;;5.62;77.59
62038;BME280;47991;42.974;12.082;2023-03-13T02:30:22;97970.94;;;5.50;77.15
62038;BME280;47991;42.974;12.082;2023-03-13T02:32:49;97972.20;;;5.41;77.88
62038;BME280;47991;42.974;12.082;2023-03-13T02:35:18;97970.81;;;5.39;78.41
62038;BME280;47991;42.974;12.082;2023-03-13T02:37:49;97972.39;;;5.40;78.71
62038;BME280;47991;42.974;12.082;2023-03-13T02:40:23;97967.48;;;5.37;78.19
62038;BME280;47991;42.974;12.082;2023-03-13T02:42:51;97966.27;;;5.34;78.37
62038;BME280;47991;42.974;12.082;2023-03-13T02:45:18;97970.65;;;5.36;78.09
62038;BME280;47991;42.974;12.082;2023-03-13T02:47:44;97972.21;;;5.37;78.08
62038;BME280;47991;42.974;12.082;2023-03-13T02:50:11;97975.90;;;5.40;78.25
62038;BME280;47991;42.974;12.082;2023-03-13T02:52:45;97975.71;;;5.42;77.56
62038;BME280;47991;42.974;12.082;2023-03-13T02:55:18;97973.43;;;5.40;78.23
62038;BME280;47991;42.974;12.082;2023-03-13T02:57:47;97983.41;;;5.42;79.00
62038;BME280;47991;42.974;12.082;2023-03-13T03:00:14;97985.52;;;5.39;78.68
62038;BME280;47991;42.974;12.082;2023-03-13T03:02:42;97989.56;;;5.42;78.19
62038;BME280;47991;42.974;12.082;2023-03-13T03:05:10;97992.72;;;5.40;78.47
62038;BME280;47991;42.974;12.082;2023-03-13T03:07:36;97992.73;;;5.39;78.39
62038;BME280;47991;42.974;12.082;2023-03-13T03:10:05;97996.22;;;5.44;78.37
62038;BME280;47991;42.974;12.082;2023-03-13T03:12:32;98000.79;;;5.42;79.00
62038;BME280;47991;42.974;12.082;2023-03-13T03:14:58;98006.23;;;5.39;78.68
62038;BME280;47991;42.974;12.082;2023-03-13T03:17:24;98008.17;;;5.33;78.49
62038;BME280;47991;42.974;12.082;2023-03-13T03:19:52;98011.00;;;5.30;78.92
62038;BME280;47991;42.974;12.082;2023-03-13T03:22:19;98015.73;;;5.30;78.49
62038;BME280;47991;42.974;12.082;2023-03-13T03:24:45;98023.09;;;5.31;78.48
62038;BME280;47991;42.974;12.082;2023-03-13T03:27:11;98021.69;;;5.32;78.70
62038;BME280;47991;42.974;12.082;2023-03-13T03:29:42;98024.45;;;5.40;79.18
62038;BME280;47991;42.974;12.082;2023-03-13T03:32:08;98026.19;;;5.44;78.57
62038;BME280;47991;42.974;12.082;2023-03-13T03:34:35;98030.08;;;5.38;78.14
62038;BME280;47991;42.974;12.082;2023-03-13T03:37:01;98029.74;;;5.30;78.55
62038;BME280;47991;42.974;12.082;2023-03-13T03:39:27;98028.71;;;5.24;78.36
62038;BME280;47991;42.974;12.082;2023-03-13T03:41:54;98037.31;;;5.20;79.29
62038;BME280;47991;42.974;12.082;2023-03-13T03:44:20;98038.72;;;5.19;79.23
62038;BME280;47991;42.974;12.082;2023-03-13T03:46:57;98031.88;;;5.26;79.09
62038;BME280;47991;42.974;12.082;2023-03-13T03:49:24;98028.70;;;5.29;78.99
62038;BME280;47991;42.974;12.082;2023-03-13T03:51:50;98027.80;;;5.33;79.08
62038;BME280;47991;42.974;12.082;2023-03-13T03:54:20;98021.69;;;5.32;79.23
62038;BME280;47991;42.974;12.082;2023-03-13T03:56:46;98021.14;;;5.34;79.64
62038;BME280;47991;42.974;12.082;2023-03-13T03:59:12;98024.48;;;5.33;79.86
62038;BME280;47991;42.974;12.082;2023-03-13T04:01:54;98023.93;;;5.37;79.71
62038;BME280;47991;42.974;12.082;2023-03-13T04:04:23;98022.02;;;5.35;79.17
62038;BME280;47991;42.974;12.082;2023-03-13T04:06:54;98017.48;;;5.28;79.15
62038;BME280;47991;42.974;12.082;2023-03-13T04:09:21;98018.71;;;5.28;79.59
62038;BME280;47991;42.974;12.082;2023-03-13T04:11:47;98017.14;;;5.28;79.48
62038;BME280;47991;42.974;12.082;2023-03-13T04:14:13;98012.73;;;5.34;79.81
62038;BME280;47991;42.974;12.082;2023-03-13T04:16:39;98012.90;;;5.37;79.78
62038;BME280;47991;42.974;12.082;2023-03-13T04:19:05;98007.83;;;5.33;79.27
62038;BME280;47991;42.974;12.082;2023-03-13T04:21:32;98006.95;;;5.31;79.53
62038;BME280;47991;42.974;12.082;2023-03-13T04:24:06;98013.78;;;5.33;79.63
62038;BME280;47991;42.974;12.082;2023-03-13T04:26:33;98014.14;;;5.30;79.89
62038;BME280;47991;42.974;12.082;2023-03-13T04:29:00;98019.27;;;5.16;80.08
62038;BME280;47991;42.974;12.082;2023-03-13T04:31:44;98023.84;;;5.14;80.33
62038;BME280;47991;42.974;12.082;2023-03-13T04:34:40;98021.89;;;5.17;80.66
62038;BME280;47991;42.974;12.082;2023-03-13T04:37:32;98024.16;;;5.19;80.19
62038;BME280;47991;42.974;12.082;2023-03-13T04:40:17;98024.70;;;5.19;80.11
62038;BME280;47991;42.974;12.082;2023-03-13T04:43:00;98025.41;;;5.18;80.46
62038;BME280;47991;42.974;12.082;2023-03-13T04:45:31;98026.10;;;5.18;80.17
62038;BME280;47991;42.974;12.082;2023-03-13T04:48:05;98024.73;;;5.13;80.42
62038;BME280;47991;42.974;12.082;2023-03-13T04:50:47;98021.04;;;5.12;80.00
62038;BME280;47991;42.974;12.082;2023-03-13T04:53:14;98018.77;;;5.13;80.16
62038;BME280;47991;42.974;12.082;2023-03-13T04:56:00;98020.85;;;5.14;79.85
62038;BME280;47991;42.974;12.082;2023-03-13T04:58:49;98022.08;;;5.15;80.03
62038;BME280;47991;42.974;12.082;2023-03-13T05:01:40;98027.33;;;5.21;80.14
62038;BME280;47991;42.974;12.082;2023-03-13T05:04:44;98029.41;;;5.22;80.99
62038;BME280;47991;42.974;12.082;2023-03-13T05:07:16;98030.14;;;5.19;81.28
62038;BME280;47991;42.974;12.082;2023-03-13T05:10:01;98033.64;;;5.17;80.66
62038;BME280;47991;42.974;12.082;2023-03-13T05:13:05;98041.70;;;5.16;80.58
62038;BME280;47991;42.974;12.082;2023-03-13T05:15:54;98043.83;;;5.15;80.31
62038;BME280;47991;42.974;12.082;2023-03-13T05:18:33;98044.86;;;5.16;80.40
62038;BME280;47991;42.974;12.082;2023-03-13T05:21:15;98042.75;;;5.15;79.90
62038;BME280;47991;42.974;12.082;2023-03-13T05:24:11;98045.05;;;5.14;81.16
62038;BME280;47991;42.974;12.082;2023-03-13T05:26:45;98051.20;;;5.02;82.57
62038;BME280;47991;42.974;12.082;2023-03-13T05:29:29;98055.58;;;4.95;81.60
62038;BME280;47991;42.974;12.082;2023-03-13T05:32:14;98053.30;;;4.99;81.25
62038;BME280;47991;42.974;12.082;2023-03-13T05:34:52;98053.99;;;5.07;81.42
62038;BME280;47991;42.974;12.082;2023-03-13T05:37:24;98053.64;;;5.06;81.67
62038;BME280;47991;42.974;12.082;2023-03-13T05:39:58;98054.88;;;5.08;81.42
62038;BME280;47991;42.974;12.082;2023-03-13T05:42:50;98048.73;;;5.12;80.73
62038;BME280;47991;42.974;12.082;2023-03-13T05:45:26;98049.95;;;5.08;81.41
62038;BME280;47991;42.974;12.082;2023-03-13T05:48:10;98053.97;;;5.20;81.46
62038;BME280;47991;42.974;12.082;2023-03-13T05:51:02;98052.36;;;5.80;81.45
62038;BME280;47991;42.974;12.082;2023-03-13T05:53:52;98048.48;;;6.17;79.71
62038;BME280;47991;42.974;12.082;2023-03-13T05:56:38;98051.46;;;6.20;79.71
62038;BME280;47991;42.974;12.082;2023-03-13T05:59:23;98048.17;;;6.39;79.73
62038;BME280;47991;42.974;12.082;2023-03-13T06:02:07;98053.10;;;7.18;78.78
62038;BME280;47991;42.974;12.082;2023-03-13T06:04:36;98049.04;;;7.95;77.02
62038;BME280;47991;42.974;12.082;2023-03-13T06:07:03;98058.16;;;8.60;73.58
62038;BME280;47991;42.974;12.082;2023-03-13T06:09:29;98055.40;;;9.10;73.48
62038;BME280;47991;42.974;12.082;2023-03-13T06:11:56;98047.13;;;9.27;74.24
62038;BME280;47991;42.974;12.082;2023-03-13T06:14:22;98043.52;;;9.68;71.92
62038;BME280;47991;42.974;12.082;2023-03-13T06:17:03;98034.65;;;10.12;69.56
62038;BME280;47991;42.974;12.082;2023-03-13T06:19:30;98037.58;;;10.08;67.04
62038;BME280;47991;42.974;12.082;2023-03-13T06:21:56;98036.52;;;10.55;70.44
62038;BME280;47991;42.974;12.082;2023-03-13T06:24:22;98038.94;;;10.57;70.19
62038;BME280;47991;42.974;12.082;2023-03-13T06:26:51;98035.77;;;10.50;69.36
62038;BME280;47991;42.974;12.082;2023-03-13T06:29:17;98036.51;;;10.40;69.53
62038;BME280;47991;42.974;12.082;2023-03-13T06:31:43;98039.85;;;10.09;71.23
62038;BME280;47991;42.974;12.082;2023-03-13T06:34:11;98047.47;;;9.74;71.91
62038;BME280;47991;42.974;12.082;2023-03-13T06:36:37;98049.83;;;9.63;73.54
62038;BME280;47991;42.974;12.082;2023-03-13T06:39:04;98053.95;;;9.31;71.46
62038;BME280;47991;42.974;12.082;2023-03-13T06:41:30;98058.61;;;9.27;73.37
62038;BME280;47991;42.974;12.082;2023-03-13T06:43:56;98060.19;;;9.47;73.85
62038;BME280;47991;42.974;12.082;2023-03-13T06:46:23;98056.11;;;9.91;72.41
62038;BME280;47991;42.974;12.082;2023-03-13T06:48:49;98058.38;;;10.72;71.58
62038;BME280;47991;42.974;12.082;2023-03-13T06:51:17;98057.78;;;10.97;67.87
62038;BME280;47991;42.974;12.082;2023-03-13T06:53:44;98067.63;;;11.13;68.50
62038;BME280;47991;42.974;12.082;2023-03-13T06:56:11;98067.84;;;11.11;66.33
62038;BME280;47991;42.974;12.082;2023-03-13T06:58:37;98074.99;;;11.15;68.23
62038;BME280;47991;42.974;12.082;2023-03-13T07:01:08;98072.29;;;11.24;67.59
62038;BME280;47991;42.974;12.082;2023-03-13T07:03:35;98073.39;;;11.02;66.07
62038;BME280;47991;42.974;12.082;2023-03-13T07:06:03;98071.42;;;11.23;67.96
62038;BME280;47991;42.974;12.082;2023-03-13T07:08:30;98072.30;;;11.57;65.42
62038;BME280;47991;42.974;12.082;2023-03-13T07:10:59;98075.96;;;11.53;64.92
62038;BME280;47991;42.974;12.082;2023-03-13T07:13:27;98075.02;;;11.87;66.56
62038;BME280;47991;42.974;12.082;2023-03-13T07:15:53;98075.21;;;11.60;65.74
62038;BME280;47991;42.974;12.082;2023-03-13T07:18:21;98080.38;;;11.20;66.82
62038;BME280;47991;42.974;12.082;2023-03-13T07:20:52;98082.73;;;11.10;67.00
62038;BME280;47991;42.974;12.082;2023-03-13T07:23:20;98087.79;;;10.93;67.34
62038;BME280;47991;42.974;12.082;2023-03-13T07:26:00;98085.58;;;10.95;67.83
62038;BME280;47991;42.974;12.082;2023-03-13T07:28:29;98086.21;;;10.91;67.23
62038;BME280;47991;42.974;12.082;2023-03-13T07:31:06;98084.77;;;10.86;67.55
62038;BME280;47991;42.974;12.082;2023-03-13T07:33:33;98093.14;;;10.83;67.53
62038;BME280;47991;42.974;12.082;2023-03-13T07:35:59;98093.36;;;10.58;68.61
62038;BME280;47991;42.974;12.082;2023-03-13T07:38:26;98090.65;;;10.54;69.05
62038;BME280;47991;42.974;12.082;2023-03-13T07:40:54;98089.98;;;10.59;69.10
62038;BME280;47991;42.974;12.082;2023-03-13T07:43:20;98090.92;;;10.72;68.65
62038;BME280;47991;42.974;12.082;2023-03-13T07:45:55;98089.73;;;10.71;68.67
62038;BME280;47991;42.974;12.082;2023-03-13T07:48:23;98092.41;;;10.61;68.44
62038;BME280;47991;42.974;12.082;2023-03-13T07:50:49;98090.56;;;10.72;68.88
62038;BME280;47991;42.974;12.082;2023-03-13T07:53:16;98094.45;;;11.30;67.18
62038;BME280;47991;42.974;12.082;2023-03-13T07:55:57;98091.15;;;12.11;66.90
62038;BME280;47991;42.974;12.082;2023-03-13T07:58:26;98090.66;;;12.63;63.40
62038;BME280;47991;42.974;12.082;2023-03-13T08:00:53;98090.77;;;13.05;62.28
62038;BME280;47991;42.974;12.082;2023-03-13T08:03:19;98093.89;;;13.65;61.67
62038;BME280;47991;42.974;12.082;2023-03-13T08:05:46;98084.64;;;14.09;62.93
62038;BME280;47991;42.974;12.082;2023-03-13T08:08:12;98086.33;;;14.25;59.62
62038;BME280;47991;42.974;12.082;2023-03-13T08:10:38;98082.22;;;15.07;59.90
62038;BME280;47991;42.974;12.082;2023-03-13T08:13:04;98086.06;;;15.26;55.88
62038;BME280;47991;42.974;12.082;2023-03-13T08:15:31;98087.29;;;15.73;54.89
62038;BME280;47991;42.974;12.082;2023-03-13T08:17:57;98090.35;;;15.51;55.99
62038;BME280;47991;42.974;12.082;2023-03-13T08:20:24;98091.83;;;15.25;57.26
62038;BME280;47991;42.974;12.082;2023-03-13T08:22:52;98084.52;;;14.77;57.18
62038;BME280;47991;42.974;12.082;2023-03-13T08:25:20;98088.38;;;14.32;58.10
62038;BME280;47991;42.974;12.082;2023-03-13T08:27:46;98087.35;;;15.54;58.04
62038;BME280;47991;42.974;12.082;2023-03-13T08:30:12;98084.48;;;16.62;53.77
62038;BME280;47991;42.974;12.082;2023-03-13T08:32:39;98089.85;;;16.39;52.23
62038;BME280;47991;42.974;12.082;2023-03-13T08:35:06;98090.52;;;16.48;55.33
62038;BME280;47991;42.974;12.082;2023-03-13T08:37:32;98087.26;;;16.71;55.08
62038;BME280;47991;42.974;12.082;2023-03-13T08:39:58;98083.52;;;17.47;53.63
62038;BME280;47991;42.974;12.082;2023-03-13T08:42:25;98081.64;;;17.59;53.00
62038;BME280;47991;42.974;12.082;2023-03-13T08:44:51;98073.61;;;17.97;52.62
62038;BME280;47991;42.974;12.082;2023-03-13T08:47:17;98077.81;;;18.29;50.55
62038;BME280;47991;42.974;12.082;2023-03-13T08:49:44;98087.23;;;17.41;52.04
62038;BME280;47991;42.974;12.082;2023-03-13T08:52:10;98082.35;;;16.92;52.98
62038;BME280;47991;42.974;12.082;2023-03-13T08:54:36;98083.34;;;17.47;53.40
62038;BME280;47991;42.974;12.082;2023-03-13T08:57:02;98080.27;;;17.79;51.54
62038;BME280;47991;42.974;12.082;2023-03-13T08:59:29;98085.42;;;16.98;53.08
62038;BME280;47991;42.974;12.082;2023-03-13T09:01:55;98084.06;;;15.93;56.37
62038;BME280;47991;42.974;12.082;2023-03-13T09:04:21;98093.25;;;15.50;57.58
62038;BME280;47991;42.974;12.082;2023-03-13T09:06:47;98092.21;;;15.28;59.63
62038;BME280;47991;42.974;12.082;2023-03-13T09:09:14;98091.77;;;14.96;60.28
62038;BME280;47991;42.974;12.082;2023-03-13T09:11:40;98085.41;;;15.07;59.98
62038;BME280;47991;42.974;12.082;2023-03-13T09:14:09;98078.91;;;14.97;59.65
62038;BME280;47991;42.974;12.082;2023-03-13T09:16:35;98084.93;;;15.15;59.90
62038;BME280;47991;42.974;12.082;2023-03-13T09:19:02;98074.95;;;14.85;59.91
62038;BME280;47991;42.974;12.082;2023-03-13T09:21:31;98080.63;;;15.07;61.54
62038;BME280;47991;42.974;12.082;2023-03-13T09:23:58;98086.67;;;15.33;60.42
62038;BME280;47991;42.974;12.082;2023-03-13T09:26:26;98082.16;;;15.22;59.47
62038;BME280;47991;42.974;12.082;2023-03-13T09:28:53;98082.98;;;15.45;57.87
62038;BME280;47991;42.974;12.082;2023-03-13T09:31:28;98076.95;;;15.52;57.33
62038;BME280;47991;42.974;12.082;2023-03-13T09:33:57;98075.19;;;15.60;57.79
62038;BME280;47991;42.974;12.082;2023-03-13T09:36:25;98068.91;;;15.77;56.50
62038;BME280;47991;42.974;12.082;2023-03-13T09:38:54;98059.21;;;15.92;56.19
62038;BME280;47991;42.974;12.082;2023-03-13T09:41:29;98069.77;;;15.98;55.82
62038;BME280;47991;42.974;12.082;2023-03-13T09:44:23;98068.70;;;16.10;56.45
62038;BME280;47991;42.974;12.082;2023-03-13T09:49:30;98079.84;;;16.08;55.50
62038;BME280;47991;42.974;12.082;2023-03-13T09:52:21;98079.63;;;16.09;55.73
62038;BME280;47991;42.974;12.082;2023-03-13T09:54:58;98081.70;;;16.14;55.39
62038;BME280;47991;42.974;12.082;2023-03-13T09:57:37;98078.52;;;16.29;54.20
62038;BME280;47991;42.974;12.082;2023-03-13T10:00:06;98064.61;;;16.22;54.28
62038;BME280;47991;42.974;12.082;2023-03-13T10:02:39;98064.16;;;16.39;54.62
62038;BME280;47991;42.974;12.082;2023-03-13T10:05:20;98069.88;;;16.58;53.61
62038;BME280;47991;42.974;12.082;2023-03-13T10:07:47;98064.64;;;16.70;52.96
62038;BME280;47991;42.974;12.082;2023-03-13T10:10:19;98063.13;;;16.75;52.31
62038;BME280;47991;42.974;12.082;2023-03-13T10:12:51;98060.27;;;16.76;51.30
62038;BME280;47991;42.974;12.082;2023-03-13T10:17:58;98057.70;;;16.78;52.53
62038;BME280;47991;42.974;12.082;2023-03-13T10:20:33;98055.66;;;16.86;51.72
62038;BME280;47991;42.974;12.082;2023-03-13T10:23:10;98057.02;;;16.84;51.53
62038;BME280;47991;42.974;12.082;2023-03-13T10:25:51;98054.89;;;16.76;51.66
62038;BME280;47991;42.974;12.082;2023-03-13T10:28:18;98045.13;;;16.94;51.24
62038;BME280;47991;42.974;12.082;2023-03-13T10:30:50;98055.20;;;17.07;50.83
62038;BME280;47991;42.974;12.082;2023-03-13T10:33:25;98047.41;;;17.30;50.18
62038;BME280;47991;42.974;12.082;2023-03-13T10:36:11;98043.21;;;17.49;47.66
62038;BME280;47991;42.974;12.082;2023-03-13T10:38:52;98045.00;;;17.60;47.78
62038;BME280;47991;42.974;12.082;2023-03-13T10:41:26;98057.05;;;17.55;46.29
62038;BME280;47991;42.974;12.082;2023-03-13T10:44:04;98040.80;;;17.44;46.66
62038;BME280;47991;42.974;12.082;2023-03-13T10:46:33;98039.70;;;17.48;47.70
62038;BME280;47991;42.974;12.082;2023-03-13T10:49:03;98029.05;;;17.57;47.27
62038;BME280;47991;42.974;12.082;2023-03-13T10:51:46;98032.48;;;17.59;48.23
62038;BME280;47991;42.974;12.082;2023-03-13T10:54:40;98030.73;;;17.49;48.81
62038;BME280;47991;42.974;12.082;2023-03-13T10:59:47;98012.25;;;17.87;49.08
62038;BME280;47991;42.974;12.082;2023-03-13T11:02:33;98017.07;;;17.84;49.09
62038;BME280;47991;42.974;12.082;2023-03-13T11:07:51;98008.98;;;17.98;47.57
62038;BME280;47991;42.974;12.082;2023-03-13T11:10:26;98007.64;;;18.03;47.86
62038;BME280;47991;42.974;12.082;2023-03-13T11:13:01;98004.56;;;18.17;46.92
62038;BME280;47991;42.974;12.082;2023-03-13T11:15:49;98018.66;;;18.24;45.91
62038;BME280;47991;42.974;12.082;2023-03-13T11:18:34;98026.30;;;18.09;45.86
62038;BME280;47991;42.974;12.082;2023-03-13T11:21:05;98025.84;;;18.21;46.08
62038;BME280;47991;42.974;12.082;2023-03-13T11:23:38;98027.75;;;18.21;46.37
62038;BME280;47991;42.974;12.082;2023-03-13T11:31:43;98026.55;;;18.14;46.23
62038;BME280;47991;42.974;12.082;2023-03-13T11:34:35;98023.89;;;18.17;45.39
62038;BME280;47991;42.974;12.082;2023-03-13T11:37:12;98014.94;;;18.10;46.30
62038;BME280;47991;42.974;12.082;2023-03-13T11:39:58;98015.67;;;18.23;46.33
62038;BME280;47991;42.974;12.082;2023-03-13T11:45:44;98004.59;;;18.33;45.95
62038;BME280;47991;42.974;12.082;2023-03-13T11:51:12;98002.35;;;18.08;46.87
62038;BME280;47991;42.974;12.082;2023-03-13T12:02:34;97976.32;;;18.33;47.86
62038;BME280;47991;42.974;12.082;2023-03-13T12:05:05;97967.88;;;18.48;47.39
62038;BME280;47991;42.974;12.082;2023-03-13T12:08:05;97960.35;;;18.55;46.75
62038;BME280;47991;42.974;12.082;2023-03-13T12:10:40;97964.08;;;18.65;46.59
62038;BME280;47991;42.974;12.082;2023-03-13T12:13:31;97958.77;;;18.64;46.82
62038;BME280;47991;42.974;12.082;2023-03-13T12:16:06;97960.77;;;18.76;47.30
62038;BME280;47991;42.974;12.082;2023-03-13T12:18:40;97961.23;;;18.90;47.42
62038;BME280;47991;42.974;12.082;2023-03-13T12:21:16;97960.21;;;19.31;46.52
62038;BME280;47991;42.974;12.082;2023-03-13T12:24:18;97951.34;;;19.29;45.65
62038;BME280;47991;42.974;12.082;2023-03-13T12:27:24;97947.83;;;19.07;46.51
62038;BME280;47991;42.974;12.082;2023-03-13T12:29:55;97945.08;;;18.97;47.21
62038;BME280;47991;42.974;12.082;2023-03-13T12:32:39;97947.52;;;18.88;47.00
62038;BME280;47991;42.974;12.082;2023-03-13T12:35:22;97944.53;;;18.88;48.15
62038;BME280;47991;42.974;12.082;2023-03-13T12:38:03;97943.20;;;19.04;47.49
62038;BME280;47991;42.974;12.082;2023-03-13T12:41:00;97946.38;;;19.14;47.08
62038;BME280;47991;42.974;12.082;2023-03-13T12:43:33;97944.81;;;19.01;47.13
62038;BME280;47991;42.974;12.082;2023-03-13T12:48:49;97929.48;;;19.00;47.13
62038;BME280;47991;42.974;12.082;2023-03-13T12:57:13;97910.69;;;18.81;47.19
62038;BME280;47991;42.974;12.082;2023-03-13T13:00:00;97905.06;;;18.61;46.98
62038;BME280;47991;42.974;12.082;2023-03-13T13:02:36;97911.41;;;18.47;46.54
62038;BME280;47991;42.974;12.082;2023-03-13T13:05:20;97901.91;;;18.57;46.78
62038;BME280;47991;42.974;12.082;2023-03-13T13:07:57;97899.74;;;18.72;46.89
62038;BME280;47991;42.974;12.082;2023-03-13T13:10:25;97885.34;;;19.07;45.57
62038;BME280;47991;42.974;12.082;2023-03-13T13:15:45;97898.94;;;19.62;44.00
62038;BME280;47991;42.974;12.082;2023-03-13T13:18:37;97900.30;;;19.98;42.93
62038;BME280;47991;42.974;12.082;2023-03-13T13:23:45;97905.46;;;20.37;42.27
62038;BME280;47991;42.974;12.082;2023-03-13T13:26:37;97913.41;;;20.50;41.80
62038;BME280;47991;42.974;12.082;2023-03-13T13:32:00;97910.33;;;20.34;43.06
62038;BME280;47991;42.974;12.082;2023-03-13T13:37:37;97903.17;;;20.25;42.96
62038;BME280;47991;42.974;12.082;2023-03-13T13:42:54;97890.05;;;19.84;42.79
62038;BME280;47991;42.974;12.082;2023-03-13T13:45:27;97884.83;;;19.58;42.66
62038;BME280;47991;42.974;12.082;2023-03-13T13:56:30;97882.66;;;19.41;41.98
62038;BME280;47991;42.974;12.082;2023-03-13T13:59:02;97881.88;;;19.31;42.30
62038;BME280;47991;42.974;12.082;2023-03-13T14:01:30;97879.35;;;19.49;42.67
62038;BME280;47991;42.974;12.082;2023-03-13T14:04:27;97878.02;;;19.58;42.23
62038;BME280;47991;42.974;12.082;2023-03-13T14:06:59;97876.20;;;19.38;41.42
62038;BME280;47991;42.974;12.082;2023-03-13T14:09:41;97870.46;;;19.21;41.43
62038;BME280;47991;42.974;12.082;2023-03-13T14:15:18;97869.05;;;18.98;41.41
62038;BME280;47991;42.974;12.082;2023-03-13T14:20:53;97865.88;;;18.39;42.59
62038;BME280;47991;42.974;12.082;2023-03-13T14:25:58;97865.59;;;18.10;43.58
62038;BME280;47991;42.974;12.082;2023-03-13T14:28:26;97855.16;;;18.23;43.11
62038;BME280;47991;42.974;12.082;2023-03-13T14:30:55;97856.70;;;18.09;42.98
62038;BME280;47991;42.974;12.082;2023-03-13T14:33:23;97854.01;;;17.96;42.99
62038;BME280;47991;42.974;12.082;2023-03-13T14:35:57;97857.86;;;17.91;42.67
62038;BME280;47991;42.974;12.082;2023-03-13T14:38:25;97856.42;;;17.78;43.12
62038;BME280;47991;42.974;12.082;2023-03-13T14:40:53;97849.70;;;17.93;42.94
62038;BME280;47991;42.974;12.082;2023-03-13T14:45:51;97850.35;;;18.17;43.51
62038;BME280;47991;42.974;12.082;2023-03-13T14:48:28;97842.98;;;18.36;42.65
62038;BME280;47991;42.974;12.082;2023-03-13T14:51:09;97848.67;;;18.12;42.60
62038;BME280;47991;42.974;12.082;2023-03-13T14:54:01;97829.09;;;18.06;42.59
62038;BME280;47991;42.974;12.082;2023-03-13T14:56:34;97831.56;;;17.98;42.71